createdAt,value
2023-11-21T00:00:13.175Z,95.93
2023-11-21T00:03:01.181Z,93.49
2023-11-21T00:05:29.112Z,95.57
2023-11-21T00:07:56.559Z,96.24
2023-11-21T00:10:24.460Z,94.88
2023-11-21T00:12:51.874Z,93.23
2023-11-21T00:15:19.986Z,95.49
2023-11-21T00:17:47.882Z,93.72
2023-11-21T00:20:15.509Z,91.42
2023-11-21T00:22:43.109Z,91.55
2023-11-21T00:25:11.441Z,90.02
2023-11-21T00:27:39.208Z,88.66
2023-11-21T00:30:07.955Z,88.37
2023-11-21T00:32:37.111Z,88.85
2023-11-21T00:35:07.210Z,88.15
2023-11-21T00:37:34.677Z,87.27
2023-11-21T00:40:11.655Z,87.39
2023-11-21T00:42:39.162Z,85.77
2023-11-21T00:45:07.931Z,85.50
2023-11-21T00:47:35.543Z,86.51
2023-11-21T00:50:03.257Z,84.88
2023-11-21T00:52:31.050Z,83.55
2023-11-21T00:55:01.213Z,85.35
2023-11-21T00:57:28.730Z,85.83
2023-11-21T00:59:56.876Z,84.52
2023-11-21T01:02:24.270Z,86.03
2023-11-21T01:04:52.062Z,85.29
2023-11-21T01:07:21.859Z,86.28
2023-11-21T01:09:49.949Z,86.53
2023-11-21T01:12:18.774Z,84.51
2023-11-21T01:14:46.693Z,84.09
2023-11-21T01:17:14.143Z,86.23
2023-11-21T01:19:42.763Z,86.04
2023-11-21T01:22:10.546Z,88.38
2023-11-21T01:24:38.294Z,85.02
2023-11-21T01:27:05.829Z,84.95
2023-11-21T01:29:33.596Z,85.94
2023-11-21T01:32:00.971Z,84.87
2023-11-21T01:34:28.800Z,87.29
2023-11-21T01:36:56.085Z,84.93
2023-11-21T01:39:25.334Z,85.85
2023-11-21T01:41:53.272Z,84.37
2023-11-21T01:44:20.983Z,82.91
2023-11-21T01:46:49.391Z,84.05
2023-11-21T01:49:17.462Z,81.52
2023-11-21T01:51:50.349Z,80.47
2023-11-21T01:54:20.098Z,81.76
2023-11-21T01:56:48.394Z,82.81
2023-11-21T01:59:22.788Z,81.23
2023-11-21T02:01:51.687Z,80.86
2023-11-21T02:04:21.383Z,80.58
2023-11-21T02:06:48.983Z,79.13
2023-11-21T02:09:16.869Z,79.79
2023-11-21T02:11:45.302Z,80.12
2023-11-21T02:14:15.048Z,81.17
2023-11-21T02:16:42.704Z,80.12
2023-11-21T02:19:26.645Z,81.09
2023-11-21T02:21:55.020Z,81.86
2023-11-21T02:24:23.751Z,79.84
2023-11-21T02:26:54.894Z,80.10
2023-11-21T02:29:23.486Z,80.57
2023-11-21T02:31:55.931Z,82.34
2023-11-21T02:34:26.642Z,79.51
2023-11-21T02:36:55.334Z,80.86
2023-11-21T02:39:26.178Z,80.28
2023-11-21T02:41:53.647Z,78.72
2023-11-21T02:44:21.404Z,79.09
2023-11-21T02:46:49.085Z,79.93
2023-11-21T02:49:16.824Z,81.01
2023-11-21T02:51:44.779Z,79.12
2023-11-21T02:54:12.612Z,77.84
2023-11-21T02:56:41.309Z,78.18
2023-11-21T02:59:09.023Z,77.94
2023-11-21T03:01:36.510Z,77.00
2023-11-21T03:04:04.598Z,79.89
2023-11-21T03:06:32.138Z,79.71
2023-11-21T03:08:59.823Z,77.75
2023-11-21T03:11:27.490Z,77.03
2023-11-21T03:13:55.254Z,80.26
2023-11-21T03:16:22.864Z,78.75
2023-11-21T03:18:51.338Z,76.20
2023-11-21T03:21:18.993Z,77.76
2023-11-21T03:23:46.729Z,77.45
2023-11-21T03:26:14.507Z,80.77
2023-11-21T03:28:42.387Z,79.10
2023-11-21T03:31:10.375Z,78.71
2023-11-21T03:33:38.228Z,79.36
2023-11-21T03:36:05.854Z,79.82
2023-11-21T03:38:33.442Z,81.80
2023-11-21T03:41:00.862Z,81.11
2023-11-21T03:43:30.603Z,80.30
2023-11-21T03:45:57.995Z,80.24
2023-11-21T03:48:25.519Z,81.51
2023-11-21T03:50:52.782Z,80.56
2023-11-21T03:53:20.381Z,80.91
2023-11-21T03:55:47.875Z,80.38
2023-11-21T03:58:15.564Z,81.07
2023-11-21T04:00:42.863Z,80.62
2023-11-21T04:03:10.598Z,78.88
2023-11-21T04:05:38.007Z,79.82
2023-11-21T04:08:05.701Z,79.92
2023-11-21T04:10:33.178Z,81.01
2023-11-21T04:13:01.655Z,80.75
2023-11-21T04:15:29.112Z,79.72
2023-11-21T04:17:58.008Z,80.22
2023-11-21T04:20:25.627Z,78.99
2023-11-21T04:22:53.313Z,80.39
2023-11-21T04:25:20.964Z,82.07
2023-11-21T04:27:48.886Z,82.86
2023-11-21T04:30:16.363Z,81.22
2023-11-21T04:32:44.118Z,81.49
2023-11-21T04:35:11.933Z,83.86
2023-11-21T04:37:39.696Z,84.41
2023-11-21T04:40:08.513Z,82.08
2023-11-21T04:42:37.580Z,81.71
2023-11-21T04:45:09.961Z,83.16
2023-11-21T04:47:37.761Z,82.43
2023-11-21T04:50:07.244Z,82.76
2023-11-21T04:52:35.088Z,82.64
2023-11-21T04:55:03.814Z,82.91
2023-11-21T04:57:32.415Z,84.23
2023-11-21T04:59:59.876Z,84.37
2023-11-21T05:02:33.990Z,84.59
2023-11-21T05:05:05.427Z,84.51
2023-11-21T05:07:33.821Z,84.13
2023-11-21T05:10:01.194Z,84.42
2023-11-21T05:12:28.918Z,85.43
2023-11-21T05:14:57.185Z,85.36
2023-11-21T05:17:24.838Z,85.78
2023-11-21T05:19:53.033Z,87.08
2023-11-21T05:22:21.496Z,86.88
2023-11-21T05:24:48.839Z,87.15
2023-11-21T05:27:17.277Z,87.41
2023-11-21T05:29:44.543Z,87.55
2023-11-21T05:32:12.265Z,86.74
2023-11-21T05:34:39.732Z,86.92
2023-11-21T05:37:07.482Z,86.07
2023-11-21T05:39:34.833Z,84.20
2023-11-21T05:42:02.973Z,85.60
2023-11-21T05:44:30.334Z,85.13
2023-11-21T05:47:00.112Z,85.75
2023-11-21T05:49:27.783Z,84.85
2023-11-21T05:51:55.514Z,85.86
2023-11-21T05:54:23.850Z,84.97
2023-11-21T05:56:51.524Z,85.38
2023-11-21T05:59:20.689Z,85.57
2023-11-21T06:01:49.655Z,85.53
2023-11-21T06:04:17.103Z,85.92
2023-11-21T06:06:45.381Z,86.01
2023-11-21T06:09:13.281Z,86.44
2023-11-21T06:11:41.002Z,87.20
2023-11-21T06:14:10.438Z,87.11
2023-11-21T06:16:38.165Z,87.32
2023-11-21T06:19:06.642Z,87.56
2023-11-21T06:21:35.152Z,88.08
2023-11-21T06:24:02.840Z,88.60
2023-11-21T06:26:30.418Z,88.78
2023-11-21T06:28:58.321Z,88.21
2023-11-21T06:31:26.107Z,88.20
2023-11-21T06:33:54.177Z,88.05
2023-11-21T06:36:22.148Z,87.99
2023-11-21T06:38:49.554Z,88.37
2023-11-21T06:41:17.167Z,88.85
2023-11-21T06:43:47.920Z,88.38
2023-11-21T06:46:20.312Z,88.56
2023-11-21T06:48:47.840Z,89.08
2023-11-21T06:51:15.530Z,88.65
2023-11-21T06:53:42.858Z,89.00
2023-11-21T06:56:18.175Z,88.40
2023-11-21T06:58:47.120Z,88.96
2023-11-21T07:01:14.996Z,88.34
2023-11-21T07:03:42.820Z,89.10
2023-11-21T07:06:10.597Z,88.65
2023-11-21T07:08:38.394Z,89.47
2023-11-21T07:11:06.195Z,88.34
2023-11-21T07:13:33.564Z,86.98
2023-11-21T07:16:01.421Z,87.80
2023-11-21T07:18:28.919Z,86.97
2023-11-21T07:20:56.613Z,87.68
2023-11-21T07:23:24.161Z,87.28
2023-11-21T07:25:51.871Z,86.59
2023-11-21T07:28:19.385Z,87.46
2023-11-21T07:30:46.977Z,87.26
2023-11-21T07:33:14.306Z,88.24
2023-11-21T07:35:42.017Z,87.23
2023-11-21T07:38:09.360Z,87.15
2023-11-21T07:40:37.586Z,87.16
2023-11-21T07:43:04.873Z,86.62
2023-11-21T07:45:32.550Z,84.26
2023-11-21T07:48:02.102Z,82.89
2023-11-21T07:50:29.966Z,85.34
2023-11-21T07:52:59.150Z,83.68
2023-11-21T07:55:27.921Z,82.49
2023-11-21T07:57:55.235Z,83.31
2023-11-21T08:00:22.907Z,82.15
2023-11-21T08:02:50.399Z,80.43
2023-11-21T08:05:25.019Z,79.57
2023-11-21T08:07:55.912Z,82.73
2023-11-21T08:10:23.762Z,81.20
2023-11-21T08:12:51.958Z,83.06
2023-11-21T08:15:19.920Z,80.63
2023-11-21T08:17:48.199Z,79.45
2023-11-21T08:20:19.338Z,81.44
2023-11-21T08:22:49.082Z,78.54
2023-11-21T08:25:18.645Z,78.57
2023-11-21T08:27:46.109Z,79.19
2023-11-21T08:30:15.507Z,79.53
2023-11-21T08:32:42.867Z,78.94
2023-11-21T08:35:13.617Z,77.79
2023-11-21T08:37:41.506Z,77.92
2023-11-21T08:40:10.750Z,73.80
2023-11-21T08:42:38.775Z,72.14
2023-11-21T08:45:07.280Z,75.89
2023-11-21T08:47:34.717Z,78.17
2023-11-21T08:50:03.187Z,79.54
2023-11-21T08:52:30.885Z,79.13
2023-11-21T08:54:58.609Z,77.75
2023-11-21T08:57:26.881Z,78.43
2023-11-21T08:59:56.770Z,75.02
2023-11-21T09:02:24.752Z,71.42
2023-11-21T09:04:53.886Z,72.20
2023-11-21T09:07:21.800Z,68.62
2023-11-21T09:09:49.996Z,66.34
2023-11-21T09:12:18.174Z,65.10
2023-11-21T09:14:45.771Z,63.23
2023-11-21T09:17:13.302Z,62.17
2023-11-21T09:19:41.848Z,57.75
2023-11-21T09:22:09.281Z,55.01
2023-11-21T09:24:38.013Z,54.66
2023-11-21T09:27:06.623Z,56.36
2023-11-21T09:29:34.368Z,56.44
2023-11-21T09:32:02.572Z,57.63
2023-11-21T09:34:30.499Z,56.54
2023-11-21T09:36:57.898Z,56.62
2023-11-21T09:39:25.810Z,58.18
2023-11-21T09:42:00.150Z,57.41
2023-11-21T09:44:45.190Z,54.60
2023-11-21T09:47:17.497Z,58.12
2023-11-21T09:49:50.687Z,59.12
2023-11-21T09:52:26.861Z,59.66
2023-11-21T09:54:56.139Z,58.78
2023-11-21T09:57:24.794Z,58.79
2023-11-21T10:00:00.607Z,60.51
2023-11-21T10:02:33.878Z,59.78
2023-11-21T10:05:02.136Z,59.25
2023-11-21T10:07:32.083Z,59.83
2023-11-21T10:10:01.997Z,60.75
2023-11-21T10:12:31.011Z,61.41
2023-11-21T10:15:01.855Z,60.43
2023-11-21T10:17:37.538Z,61.39
2023-11-21T10:20:12.677Z,61.66
2023-11-21T10:22:44.502Z,62.32
2023-11-21T10:25:15.608Z,61.45
2023-11-21T10:27:44.332Z,62.10
2023-11-21T10:30:17.235Z,61.58
2023-11-21T10:32:44.843Z,60.84
2023-11-21T10:35:13.743Z,61.18
2023-11-21T10:37:41.681Z,60.37
2023-11-21T10:40:13.693Z,59.61
2023-11-21T10:42:41.905Z,58.35
2023-11-21T10:45:16.204Z,59.31
2023-11-21T10:47:45.481Z,60.73
2023-11-21T10:50:13.376Z,61.63
2023-11-21T10:52:48.068Z,60.71
2023-11-21T10:55:22.803Z,60.43
2023-11-21T10:57:53.676Z,60.67
2023-11-21T11:00:25.316Z,61.23
2023-11-21T11:02:55.722Z,60.51
2023-11-21T11:05:25.138Z,61.22
2023-11-21T11:08:03.204Z,61.12
2023-11-21T11:10:31.148Z,62.14
2023-11-21T11:12:59.632Z,61.69
2023-11-21T11:15:28.634Z,62.88
2023-11-21T11:17:59.697Z,61.56
2023-11-21T11:20:34.727Z,60.99
2023-11-21T11:23:14.354Z,58.67
2023-11-21T11:25:42.057Z,59.53
2023-11-21T11:28:15.512Z,59.51
2023-11-21T11:31:06.794Z,60.17
2023-11-21T11:33:49.750Z,60.01
2023-11-21T11:36:26.896Z,60.56
2023-11-21T11:38:57.235Z,60.05
2023-11-21T11:41:33.585Z,60.25
2023-11-21T11:44:05.656Z,59.39
2023-11-21T11:46:46.696Z,59.04
2023-11-21T11:49:29.428Z,59.38
2023-11-21T11:52:35.686Z,60.32
2023-11-21T11:55:05.443Z,60.42
2023-11-21T11:57:36.254Z,61.78
2023-11-21T12:00:17.945Z,61.73
2023-11-21T12:02:46.755Z,61.95
2023-11-21T12:05:24.836Z,61.95
2023-11-21T12:07:58.666Z,61.44
2023-11-21T12:10:41.858Z,60.74
2023-11-21T12:13:11.731Z,62.41
2023-11-21T12:15:42.062Z,61.59
2023-11-21T12:18:09.861Z,61.64
2023-11-21T12:20:40.496Z,61.90
2023-11-21T12:23:10.690Z,61.02
2023-11-21T12:25:39.489Z,60.98
2023-11-21T12:28:07.431Z,61.87
2023-11-21T12:30:37.301Z,62.83
2023-11-21T12:33:05.744Z,62.11
2023-11-21T12:35:35.535Z,62.38
2023-11-21T12:38:06.284Z,62.28
2023-11-21T12:40:34.139Z,63.40
2023-11-21T12:43:05.566Z,63.20
2023-11-21T12:45:33.502Z,63.19
2023-11-21T12:48:10.264Z,62.67
2023-11-21T12:50:39.272Z,61.87
2023-11-21T12:53:13.784Z,61.73
2023-11-21T12:55:43.395Z,61.12
2023-11-21T12:58:12.856Z,62.70
2023-11-21T13:00:44.037Z,60.83
2023-11-21T13:03:17.204Z,60.46
2023-11-21T13:05:49.216Z,60.83
2023-11-21T13:08:21.356Z,61.60
2023-11-21T13:10:55.577Z,62.29
2023-11-21T13:13:25.564Z,61.53
2023-11-21T13:15:57.491Z,62.10
2023-11-21T13:18:28.090Z,62.42
2023-11-21T13:21:00.976Z,62.62
2023-11-21T13:23:30.575Z,62.13
2023-11-21T13:26:02.772Z,62.42
2023-11-21T13:28:36.362Z,63.88
2023-11-21T13:31:11.796Z,65.65
2023-11-21T13:33:42.507Z,66.00
2023-11-21T13:36:11.306Z,66.72
2023-11-21T13:38:44.072Z,66.64
2023-11-21T13:41:13.849Z,65.91
2023-11-21T13:43:45.229Z,66.22
2023-11-21T13:46:18.503Z,65.75
2023-11-21T13:48:52.508Z,65.41
2023-11-21T13:51:21.630Z,66.36
2023-11-21T13:53:52.223Z,67.15
2023-11-21T13:56:27.925Z,67.15
2023-11-21T13:58:57.014Z,67.99
2023-11-21T14:01:31.973Z,68.61
2023-11-21T14:04:20.920Z,70.46
2023-11-21T14:06:55.978Z,70.96
2023-11-21T14:09:26.951Z,71.24
2023-11-21T14:11:58.111Z,71.99
2023-11-21T14:14:27.163Z,72.46
2023-11-21T14:16:55.074Z,71.79
2023-11-21T14:19:26.836Z,72.10
2023-11-21T14:21:54.651Z,72.41
2023-11-21T14:24:24.847Z,72.81
2023-11-21T14:26:52.574Z,73.99
2023-11-21T14:29:25.168Z,72.89
2023-11-21T14:31:54.930Z,73.02
2023-11-21T14:34:23.542Z,72.69
2023-11-21T14:36:51.725Z,73.21
2023-11-21T14:39:27.859Z,73.03
2023-11-21T14:42:00.620Z,71.81
2023-11-21T14:44:34.100Z,71.59
2023-11-21T14:47:04.583Z,72.23
2023-11-21T14:49:43.001Z,72.56
2023-11-21T14:52:27.144Z,73.43
2023-11-21T14:55:14.742Z,73.84
2023-11-21T14:57:42.181Z,74.24
2023-11-21T15:00:30.490Z,74.08
2023-11-21T15:02:58.005Z,74.28
2023-11-21T15:05:28.269Z,74.01
2023-11-21T15:07:58.342Z,74.31
2023-11-21T15:10:39.525Z,73.26
2023-11-21T15:13:11.396Z,72.00
2023-11-21T15:15:40.792Z,72.24
2023-11-21T15:18:08.312Z,72.48
2023-11-21T15:20:36.278Z,73.46
2023-11-21T15:23:05.910Z,73.82
2023-11-21T15:25:33.901Z,73.47
2023-11-21T15:28:01.292Z,74.38
2023-11-21T15:30:33.605Z,74.38
2023-11-21T15:33:00.853Z,73.82
2023-11-21T15:35:31.992Z,73.11
2023-11-21T15:38:00.993Z,73.37
2023-11-21T15:40:29.141Z,72.77
2023-11-21T15:42:56.543Z,72.85
2023-11-21T15:45:27.209Z,72.09
2023-11-21T15:47:54.932Z,70.33
2023-11-21T15:50:22.640Z,72.03
2023-11-21T15:52:57.347Z,70.95
2023-11-21T15:55:26.951Z,70.79
2023-11-21T15:57:54.370Z,71.10
2023-11-21T16:00:24.150Z,71.04
2023-11-21T16:02:52.180Z,70.98
2023-11-21T16:05:20.373Z,69.97
2023-11-21T16:07:48.484Z,70.32
2023-11-21T16:10:16.980Z,70.96
2023-11-21T16:12:44.350Z,72.31
2023-11-21T16:15:13.212Z,72.19
2023-11-21T16:17:43.037Z,72.14
2023-11-21T16:20:14.009Z,73.66
2023-11-21T16:22:42.083Z,73.26
2023-11-21T16:25:14.291Z,73.32
2023-11-21T16:27:42.052Z,76.03
2023-11-21T16:30:10.106Z,77.03
2023-11-21T16:32:38.062Z,76.80
2023-11-21T16:35:06.405Z,72.87
2023-11-21T16:37:33.857Z,71.82
2023-11-21T16:40:01.592Z,75.66
2023-11-21T16:42:31.632Z,77.00
2023-11-21T16:44:59.454Z,80.49
2023-11-21T16:47:29.425Z,81.71
2023-11-21T16:49:59.531Z,82.57
2023-11-21T16:52:27.504Z,83.63
2023-11-21T16:54:55.482Z,83.60
2023-11-21T16:57:23.042Z,81.79
2023-11-21T16:59:52.162Z,79.69
2023-11-21T17:02:20.529Z,80.40
2023-11-21T17:04:50.567Z,79.85
2023-11-21T17:07:24.203Z,79.91
2023-11-21T17:09:52.244Z,79.95
2023-11-21T17:12:20.035Z,80.01
2023-11-21T17:14:50.499Z,80.16
2023-11-21T17:17:18.405Z,79.29
2023-11-21T17:19:46.179Z,80.65
2023-11-21T17:22:13.777Z,79.20
2023-11-21T17:24:43.763Z,78.70
2023-11-21T17:27:11.938Z,78.90
2023-11-21T17:29:40.132Z,79.84
2023-11-21T17:32:07.580Z,80.85
2023-11-21T17:34:35.406Z,81.77
2023-11-21T17:37:05.343Z,81.44
2023-11-21T17:39:33.606Z,82.00
2023-11-21T17:42:01.999Z,82.34
2023-11-21T17:44:29.870Z,81.32
2023-11-21T17:46:57.426Z,82.32
2023-11-21T17:49:25.374Z,81.08
2023-11-21T17:51:52.974Z,81.13
2023-11-21T17:54:20.920Z,80.96
2023-11-21T17:56:50.522Z,81.64
2023-11-21T17:59:18.262Z,80.88
2023-11-21T18:01:48.179Z,81.73
2023-11-21T18:04:16.043Z,82.32
2023-11-21T18:06:44.096Z,81.59
2023-11-21T18:09:12.123Z,81.58
2023-11-21T18:11:39.959Z,81.21
2023-11-21T18:14:11.122Z,81.05
2023-11-21T18:16:39.748Z,80.84
2023-11-21T18:19:08.074Z,81.43
2023-11-21T18:21:39.006Z,81.67
2023-11-21T18:24:08.627Z,81.08
2023-11-21T18:26:36.147Z,81.58
2023-11-21T18:29:04.084Z,80.93
2023-11-21T18:31:31.808Z,81.00
2023-11-21T18:33:59.577Z,80.89
2023-11-21T18:36:27.010Z,80.70
2023-11-21T18:38:55.045Z,80.58
2023-11-21T18:41:24.395Z,79.24
2023-11-21T18:43:52.313Z,79.16
2023-11-21T18:46:21.192Z,78.36
2023-11-21T18:48:50.450Z,78.74
2023-11-21T18:51:18.066Z,78.98
2023-11-21T18:53:45.704Z,78.29
2023-11-21T18:56:22.468Z,77.19
2023-11-21T18:58:50.311Z,76.22
2023-11-21T19:01:32.080Z,76.43
2023-11-21T19:04:00.374Z,76.66
2023-11-21T19:06:28.304Z,75.70
2023-11-21T19:08:56.167Z,75.11
2023-11-21T19:11:24.304Z,74.84
2023-11-21T19:13:53.330Z,75.45
2023-11-21T19:16:22.319Z,75.45
2023-11-21T19:18:52.937Z,75.11
2023-11-21T19:21:20.885Z,74.98
2023-11-21T19:23:49.953Z,75.34
2023-11-21T19:26:17.513Z,76.95
2023-11-21T19:28:45.862Z,77.09
2023-11-21T19:31:20.684Z,76.70
2023-11-21T19:33:49.320Z,77.01
2023-11-21T19:36:17.681Z,76.90
2023-11-21T19:38:46.391Z,77.66
2023-11-21T19:41:18.190Z,76.42
2023-11-21T19:43:47.038Z,77.04
2023-11-21T19:46:14.866Z,76.91
2023-11-21T19:48:43.893Z,76.40
2023-11-21T19:51:13.200Z,77.11
2023-11-21T19:53:41.022Z,77.02
2023-11-21T19:56:11.933Z,76.81
2023-11-21T19:58:43.098Z,77.63
2023-11-21T20:01:11.265Z,77.72
2023-11-21T20:03:40.153Z,77.88
2023-11-21T20:06:08.183Z,77.34
2023-11-21T20:08:36.956Z,77.96
2023-11-21T20:11:05.417Z,78.23
2023-11-21T20:13:33.737Z,78.14
2023-11-21T20:16:01.289Z,78.63
2023-11-21T20:18:32.054Z,77.72
2023-11-21T20:21:00.030Z,78.05
2023-11-21T20:23:32.663Z,78.35
2023-11-21T20:26:00.438Z,78.64
2023-11-21T20:28:28.794Z,78.50
2023-11-21T20:30:58.180Z,79.93
2023-11-21T20:33:26.359Z,80.23
2023-11-21T20:35:53.829Z,80.75
2023-11-21T20:38:23.602Z,80.86
2023-11-21T20:40:51.165Z,80.92
2023-11-21T20:43:18.888Z,82.18
2023-11-21T20:45:46.245Z,82.81
2023-11-21T20:48:15.161Z,82.78
2023-11-21T20:50:45.356Z,82.56
2023-11-21T20:53:13.398Z,84.13
2023-11-21T20:55:41.794Z,82.79
2023-11-21T20:58:12.667Z,82.62
2023-11-21T21:00:40.073Z,82.06
2023-11-21T21:03:08.414Z,82.80
2023-11-21T21:05:39.116Z,81.60
2023-11-21T21:08:07.648Z,81.97
2023-11-21T21:10:35.453Z,81.31
2023-11-21T21:13:03.670Z,81.08
2023-11-21T21:15:31.013Z,81.78
2023-11-21T21:17:58.803Z,82.79
2023-11-21T21:20:26.919Z,83.58
2023-11-21T21:22:54.749Z,84.36
2023-11-21T21:25:22.060Z,84.96
2023-11-21T21:27:50.271Z,85.89
2023-11-21T21:30:17.709Z,88.14
2023-11-21T21:32:45.326Z,90.30
2023-11-21T21:35:13.942Z,91.13
2023-11-21T21:37:41.839Z,92.69
2023-11-21T21:40:09.834Z,91.99
2023-11-21T21:42:37.677Z,92.97
2023-11-21T21:45:05.536Z,93.42
2023-11-21T21:47:33.295Z,93.04
2023-11-21T21:50:01.116Z,93.26
2023-11-21T21:52:36.600Z,93.10
2023-11-21T21:55:05.562Z,93.31
2023-11-21T21:57:33.507Z,92.44
2023-11-21T22:00:00.852Z,92.44
2023-11-21T22:02:28.806Z,91.41
2023-11-21T22:04:56.609Z,91.65
2023-11-21T22:07:24.466Z,90.84
2023-11-21T22:09:52.684Z,90.49
2023-11-21T22:12:23.024Z,88.71
2023-11-21T22:14:50.468Z,89.56
2023-11-21T22:17:18.195Z,87.80
2023-11-21T22:19:45.661Z,86.97
2023-11-21T22:22:13.537Z,88.08
2023-11-21T22:24:41.097Z,88.66
2023-11-21T22:27:08.685Z,88.62
2023-11-21T22:29:37.608Z,88.46
2023-11-21T22:32:08.690Z,88.97
2023-11-21T22:34:36.226Z,88.10
2023-11-21T22:37:04.245Z,87.71
2023-11-21T22:39:31.797Z,89.65
2023-11-21T22:41:59.467Z,89.68
2023-11-21T22:44:26.990Z,89.35
2023-11-21T22:46:54.805Z,89.54
2023-11-21T22:49:23.159Z,89.34
2023-11-21T22:51:50.782Z,89.29
2023-11-21T22:54:18.103Z,89.54
2023-11-21T22:56:45.772Z,90.33
2023-11-21T22:59:13.317Z,91.38
2023-11-21T23:01:41.091Z,92.11
2023-11-21T23:04:09.909Z,90.81
2023-11-21T23:06:37.708Z,91.52
2023-11-21T23:09:05.112Z,88.30
2023-11-21T23:11:32.916Z,88.70
2023-11-21T23:14:00.457Z,88.72
2023-11-21T23:16:28.148Z,89.02
2023-11-21T23:18:55.571Z,89.77
2023-11-21T23:21:23.294Z,88.32
2023-11-21T23:23:50.745Z,86.75
2023-11-21T23:26:19.421Z,87.63
2023-11-21T23:28:47.006Z,88.74
2023-11-21T23:31:15.322Z,89.59
2023-11-21T23:33:42.900Z,88.01
2023-11-21T23:36:10.667Z,87.77
2023-11-21T23:38:41.847Z,89.42
2023-11-21T23:41:09.932Z,89.46
2023-11-21T23:43:37.307Z,89.96
2023-11-21T23:46:05.779Z,91.39
2023-11-21T23:48:33.224Z,92.31
2023-11-21T23:51:00.987Z,93.13
2023-11-21T23:53:28.423Z,94.52
2023-11-21T23:55:56.175Z,93.78
2023-11-21T23:58:23.523Z,90.28
